sensor_id;sensor_type;location;lat;lon;timestamp;P1;durP1;ratioP1;P2;durP2;ratioP2
56063;SDS011;41940;52.880;13.012;2022-10-16T00:01:46;16.58;;;2.55;;
56063;SDS011;41940;52.880;13.012;2022-10-16T00:04:12;6.30;;;2.03;;
56063;SDS011;41940;52.880;13.012;2022-10-16T00:06:38;23.00;;;2.38;;
56063;SDS011;41940;52.880;13.012;2022-10-16T00:09:04;22.88;;;2.33;;
56063;SDS011;41940;52.880;13.012;2022-10-16T00:11:31;14.73;;;2.95;;
56063;SDS011;41940;52.880;13.012;2022-10-16T00:13:59;26.67;;;2.55;;
56063;SDS011;41940;52.880;13.012;2022-10-16T00:16:27;9.45;;;2.05;;
56063;SDS011;41940;52.880;13.012;2022-10-16T00:18:53;12.25;;;2.22;;
56063;SDS011;41940;52.880;13.012;2022-10-16T00:21:20;13.80;;;3.00;;
56063;SDS011;41940;52.880;13.012;2022-10-16T00:23:52;7.57;;;2.00;;
56063;SDS011;41940;52.880;13.012;2022-10-16T00:26:19;9.93;;;2.03;;
56063;SDS011;41940;52.880;13.012;2022-10-16T00:28:49;6.63;;;1.70;;
56063;SDS011;41940;52.880;13.012;2022-10-16T00:31:16;8.35;;;2.15;;
56063;SDS011;41940;52.880;13.012;2022-10-16T00:33:43;6.57;;;1.90;;
56063;SDS011;41940;52.880;13.012;2022-10-16T00:36:12;19.80;;;2.10;;
56063;SDS011;41940;52.880;13.012;2022-10-16T00:38:40;9.48;;;2.40;;
56063;SDS011;41940;52.880;13.012;2022-10-16T00:41:06;2.38;;;1.70;;
56063;SDS011;41940;52.880;13.012;2022-10-16T00:43:39;10.52;;;2.15;;
56063;SDS011;41940;52.880;13.012;2022-10-16T00:46:21;22.88;;;2.35;;
56063;SDS011;41940;52.880;13.012;2022-10-16T00:49:14;13.00;;;1.85;;
56063;SDS011;41940;52.880;13.012;2022-10-16T00:51:45;13.63;;;2.53;;
56063;SDS011;41940;52.880;13.012;2022-10-16T00:54:14;7.65;;;1.80;;
56063;SDS011;41940;52.880;13.012;2022-10-16T00:56:48;6.32;;;2.17;;
56063;SDS011;41940;52.880;13.012;2022-10-16T00:59:22;4.10;;;1.98;;
56063;SDS011;41940;52.880;13.012;2022-10-16T01:02:02;13.02;;;2.40;;
56063;SDS011;41940;52.880;13.012;2022-10-16T01:04:31;8.02;;;1.67;;
56063;SDS011;41940;52.880;13.012;2022-10-16T01:15:10;3.53;;;1.48;;
56063;SDS011;41940;52.880;13.012;2022-10-16T01:23:03;2.20;;;1.40;;
56063;SDS011;41940;52.880;13.012;2022-10-16T01:25:52;2.30;;;1.73;;
56063;SDS011;41940;52.880;13.012;2022-10-16T01:28:49;19.40;;;2.10;;
56063;SDS011;41940;52.880;13.012;2022-10-16T01:31:24;5.78;;;1.35;;
56063;SDS011;41940;52.880;13.012;2022-10-16T01:33:56;8.55;;;1.90;;
56063;SDS011;41940;52.880;13.012;2022-10-16T01:36:31;6.75;;;1.60;;
56063;SDS011;41940;52.880;13.012;2022-10-16T01:39:07;3.20;;;1.92;;
56063;SDS011;41940;52.880;13.012;2022-10-16T01:41:45;1.77;;;1.40;;
56063;SDS011;41940;52.880;13.012;2022-10-16T01:44:16;7.13;;;1.83;;
56063;SDS011;41940;52.880;13.012;2022-10-16T01:46:46;2.45;;;1.50;;
56063;SDS011;41940;52.880;13.012;2022-10-16T01:49:15;1.85;;;1.35;;
56063;SDS011;41940;52.880;13.012;2022-10-16T01:51:43;8.90;;;1.67;;
56063;SDS011;41940;52.880;13.012;2022-10-16T01:54:12;10.85;;;1.65;;
56063;SDS011;41940;52.880;13.012;2022-10-16T01:56:40;5.03;;;1.80;;
56063;SDS011;41940;52.880;13.012;2022-10-16T01:59:11;11.68;;;1.75;;
56063;SDS011;41940;52.880;13.012;2022-10-16T02:01:40;3.17;;;1.88;;
56063;SDS011;41940;52.880;13.012;2022-10-16T02:04:15;5.63;;;1.90;;
56063;SDS011;41940;52.880;13.012;2022-10-16T02:06:45;15.80;;;1.77;;
56063;SDS011;41940;52.880;13.012;2022-10-16T02:09:10;4.47;;;1.38;;
56063;SDS011;41940;52.880;13.012;2022-10-16T02:11:36;10.20;;;1.80;;
56063;SDS011;41940;52.880;13.012;2022-10-16T02:14:03;5.82;;;1.50;;
56063;SDS011;41940;52.880;13.012;2022-10-16T02:16:38;6.68;;;1.80;;
56063;SDS011;41940;52.880;13.012;2022-10-16T02:19:05;6.20;;;1.63;;
56063;SDS011;41940;52.880;13.012;2022-10-16T02:21:54;3.72;;;1.10;;
56063;SDS011;41940;52.880;13.012;2022-10-16T02:29:30;2.97;;;1.50;;
56063;SDS011;41940;52.880;13.012;2022-10-16T02:31:58;5.95;;;1.45;;
56063;SDS011;41940;52.880;13.012;2022-10-16T02:34:27;8.73;;;1.73;;
56063;SDS011;41940;52.880;13.012;2022-10-16T02:36:57;15.68;;;1.73;;
56063;SDS011;41940;52.880;13.012;2022-10-16T02:39:24;3.85;;;1.50;;
56063;SDS011;41940;52.880;13.012;2022-10-16T02:41:53;6.75;;;1.55;;
56063;SDS011;41940;52.880;13.012;2022-10-16T02:44:19;11.80;;;2.10;;
56063;SDS011;41940;52.880;13.012;2022-10-16T02:46:44;7.40;;;1.58;;
56063;SDS011;41940;52.880;13.012;2022-10-16T02:49:10;5.82;;;1.52;;
56063;SDS011;41940;52.880;13.012;2022-10-16T02:51:36;8.15;;;1.50;;
56063;SDS011;41940;52.880;13.012;2022-10-16T02:54:02;5.05;;;1.55;;
56063;SDS011;41940;52.880;13.012;2022-10-16T02:56:27;19.33;;;1.85;;
56063;SDS011;41940;52.880;13.012;2022-10-16T02:58:54;11.73;;;1.88;;
56063;SDS011;41940;52.880;13.012;2022-10-16T03:01:20;5.22;;;2.00;;
56063;SDS011;41940;52.880;13.012;2022-10-16T03:03:45;8.55;;;1.60;;
56063;SDS011;41940;52.880;13.012;2022-10-16T03:06:11;6.95;;;1.30;;
56063;SDS011;41940;52.880;13.012;2022-10-16T03:08:36;10.48;;;2.15;;
56063;SDS011;41940;52.880;13.012;2022-10-16T03:11:02;10.27;;;2.25;;
56063;SDS011;41940;52.880;13.012;2022-10-16T03:13:27;13.70;;;1.95;;
56063;SDS011;41940;52.880;13.012;2022-10-16T03:15:53;15.15;;;2.00;;
56063;SDS011;41940;52.880;13.012;2022-10-16T03:18:18;11.27;;;1.80;;
56063;SDS011;41940;52.880;13.012;2022-10-16T03:20:44;8.63;;;1.52;;
56063;SDS011;41940;52.880;13.012;2022-10-16T03:23:09;5.55;;;1.55;;
56063;SDS011;41940;52.880;13.012;2022-10-16T03:25:35;5.07;;;1.20;;
56063;SDS011;41940;52.880;13.012;2022-10-16T03:28:00;23.80;;;1.83;;
56063;SDS011;41940;52.880;13.012;2022-10-16T03:30:26;5.18;;;1.23;;
56063;SDS011;41940;52.880;13.012;2022-10-16T03:32:52;10.50;;;2.28;;
56063;SDS011;41940;52.880;13.012;2022-10-16T03:35:22;17.55;;;2.45;;
56063;SDS011;41940;52.880;13.012;2022-10-16T03:37:49;26.00;;;2.10;;
56063;SDS011;41940;52.880;13.012;2022-10-16T03:40:15;16.05;;;2.38;;
56063;SDS011;41940;52.880;13.012;2022-10-16T03:42:42;3.65;;;1.55;;
56063;SDS011;41940;52.880;13.012;2022-10-16T03:45:08;6.88;;;1.60;;
56063;SDS011;41940;52.880;13.012;2022-10-16T03:47:34;10.10;;;1.40;;
56063;SDS011;41940;52.880;13.012;2022-10-16T03:50:00;10.40;;;1.55;;
56063;SDS011;41940;52.880;13.012;2022-10-16T03:52:25;3.25;;;1.30;;
56063;SDS011;41940;52.880;13.012;2022-10-16T03:54:51;25.27;;;1.88;;
56063;SDS011;41940;52.880;13.012;2022-10-16T03:57:16;7.45;;;1.23;;
56063;SDS011;41940;52.880;13.012;2022-10-16T03:59:42;1.40;;;1.30;;
56063;SDS011;41940;52.880;13.012;2022-10-16T04:02:08;7.97;;;1.98;;
56063;SDS011;41940;52.880;13.012;2022-10-16T04:04:34;5.43;;;1.73;;
56063;SDS011;41940;52.880;13.012;2022-10-16T04:06:59;5.07;;;1.40;;
56063;SDS011;41940;52.880;13.012;2022-10-16T04:09:25;7.15;;;1.30;;
56063;SDS011;41940;52.880;13.012;2022-10-16T04:11:51;5.18;;;1.77;;
56063;SDS011;41940;52.880;13.012;2022-10-16T04:14:17;11.43;;;1.83;;
56063;SDS011;41940;52.880;13.012;2022-10-16T04:16:42;8.30;;;1.75;;
56063;SDS011;41940;52.880;13.012;2022-10-16T04:19:09;14.10;;;1.70;;
56063;SDS011;41940;52.880;13.012;2022-10-16T04:21:35;10.18;;;1.58;;
56063;SDS011;41940;52.880;13.012;2022-10-16T04:24:01;6.90;;;1.42;;
56063;SDS011;41940;52.880;13.012;2022-10-16T04:26:27;10.48;;;1.77;;
56063;SDS011;41940;52.880;13.012;2022-10-16T04:28:52;13.73;;;1.65;;
56063;SDS011;41940;52.880;13.012;2022-10-16T04:31:19;21.50;;;2.47;;
56063;SDS011;41940;52.880;13.012;2022-10-16T04:33:44;17.63;;;2.00;;
56063;SDS011;41940;52.880;13.012;2022-10-16T04:36:10;14.20;;;1.75;;
56063;SDS011;41940;52.880;13.012;2022-10-16T04:38:36;4.35;;;1.20;;
56063;SDS011;41940;52.880;13.012;2022-10-16T04:41:02;11.38;;;1.83;;
56063;SDS011;41940;52.880;13.012;2022-10-16T04:43:29;5.00;;;1.73;;
56063;SDS011;41940;52.880;13.012;2022-10-16T04:45:55;17.63;;;1.65;;
56063;SDS011;41940;52.880;13.012;2022-10-16T04:48:21;26.83;;;2.38;;
56063;SDS011;41940;52.880;13.012;2022-10-16T04:50:47;15.52;;;1.60;;
56063;SDS011;41940;52.880;13.012;2022-10-16T04:53:12;13.48;;;2.20;;
56063;SDS011;41940;52.880;13.012;2022-10-16T04:55:37;13.18;;;2.00;;
56063;SDS011;41940;52.880;13.012;2022-10-16T04:58:03;9.75;;;1.85;;
56063;SDS011;41940;52.880;13.012;2022-10-16T05:00:29;10.32;;;1.58;;
56063;SDS011;41940;52.880;13.012;2022-10-16T05:02:54;4.22;;;1.05;;
56063;SDS011;41940;52.880;13.012;2022-10-16T05:05:20;4.22;;;1.25;;
56063;SDS011;41940;52.880;13.012;2022-10-16T05:07:46;14.18;;;1.55;;
56063;SDS011;41940;52.880;13.012;2022-10-16T05:10:12;8.18;;;1.48;;
56063;SDS011;41940;52.880;13.012;2022-10-16T05:12:38;5.60;;;1.48;;
56063;SDS011;41940;52.880;13.012;2022-10-16T05:15:03;5.25;;;1.40;;
56063;SDS011;41940;52.880;13.012;2022-10-16T05:17:29;14.20;;;1.70;;
56063;SDS011;41940;52.880;13.012;2022-10-16T05:19:55;17.38;;;1.83;;
56063;SDS011;41940;52.880;13.012;2022-10-16T05:22:21;21.33;;;2.25;;
56063;SDS011;41940;52.880;13.012;2022-10-16T05:24:46;17.38;;;1.80;;
56063;SDS011;41940;52.880;13.012;2022-10-16T05:27:12;18.05;;;1.90;;
56063;SDS011;41940;52.880;13.012;2022-10-16T05:29:44;17.25;;;1.88;;
56063;SDS011;41940;52.880;13.012;2022-10-16T05:32:11;9.40;;;2.00;;
56063;SDS011;41940;52.880;13.012;2022-10-16T05:34:37;8.13;;;1.33;;
56063;SDS011;41940;52.880;13.012;2022-10-16T05:37:03;13.60;;;1.67;;
56063;SDS011;41940;52.880;13.012;2022-10-16T05:39:28;2.55;;;1.15;;
56063;SDS011;41940;52.880;13.012;2022-10-16T05:41:54;8.40;;;1.65;;
56063;SDS011;41940;52.880;13.012;2022-10-16T05:44:19;15.77;;;1.77;;
56063;SDS011;41940;52.880;13.012;2022-10-16T05:46:46;17.83;;;1.88;;
56063;SDS011;41940;52.880;13.012;2022-10-16T05:49:12;12.43;;;1.08;;
56063;SDS011;41940;52.880;13.012;2022-10-16T05:51:37;15.32;;;2.25;;
56063;SDS011;41940;52.880;13.012;2022-10-16T05:54:03;20.70;;;1.67;;
56063;SDS011;41940;52.880;13.012;2022-10-16T05:56:28;17.65;;;2.80;;
56063;SDS011;41940;52.880;13.012;2022-10-16T05:58:54;8.80;;;1.65;;
56063;SDS011;41940;52.880;13.012;2022-10-16T06:01:20;23.30;;;2.00;;
56063;SDS011;41940;52.880;13.012;2022-10-16T06:03:49;13.63;;;2.25;;
56063;SDS011;41940;52.880;13.012;2022-10-16T06:06:17;15.77;;;1.73;;
56063;SDS011;41940;52.880;13.012;2022-10-16T06:08:45;11.63;;;1.55;;
56063;SDS011;41940;52.880;13.012;2022-10-16T06:11:12;19.20;;;2.33;;
56063;SDS011;41940;52.880;13.012;2022-10-16T06:13:40;12.35;;;2.15;;
56063;SDS011;41940;52.880;13.012;2022-10-16T06:16:11;18.55;;;1.58;;
56063;SDS011;41940;52.880;13.012;2022-10-16T06:18:37;25.70;;;2.35;;
56063;SDS011;41940;52.880;13.012;2022-10-16T06:21:13;17.33;;;1.90;;
56063;SDS011;41940;52.880;13.012;2022-10-16T06:23:41;21.20;;;2.83;;
56063;SDS011;41940;52.880;13.012;2022-10-16T06:26:08;16.52;;;1.60;;
56063;SDS011;41940;52.880;13.012;2022-10-16T06:28:35;15.93;;;1.83;;
56063;SDS011;41940;52.880;13.012;2022-10-16T06:31:01;22.25;;;1.67;;
56063;SDS011;41940;52.880;13.012;2022-10-16T06:33:29;14.60;;;1.60;;
56063;SDS011;41940;52.880;13.012;2022-10-16T06:35:59;16.20;;;1.60;;
56063;SDS011;41940;52.880;13.012;2022-10-16T06:38:29;8.55;;;1.50;;
56063;SDS011;41940;52.880;13.012;2022-10-16T06:40:55;14.05;;;1.92;;
56063;SDS011;41940;52.880;13.012;2022-10-16T06:43:21;23.70;;;1.92;;
56063;SDS011;41940;52.880;13.012;2022-10-16T06:45:52;11.00;;;1.67;;
56063;SDS011;41940;52.880;13.012;2022-10-16T06:48:19;14.93;;;1.90;;
56063;SDS011;41940;52.880;13.012;2022-10-16T06:50:55;11.70;;;1.67;;
56063;SDS011;41940;52.880;13.012;2022-10-16T06:53:20;5.47;;;1.40;;
56063;SDS011;41940;52.880;13.012;2022-10-16T06:55:46;8.75;;;1.55;;
56063;SDS011;41940;52.880;13.012;2022-10-16T06:58:11;11.85;;;2.15;;
56063;SDS011;41940;52.880;13.012;2022-10-16T07:00:37;10.43;;;1.90;;
56063;SDS011;41940;52.880;13.012;2022-10-16T07:03:02;28.75;;;14.45;;
56063;SDS011;41940;52.880;13.012;2022-10-16T07:05:28;38.00;;;22.58;;
56063;SDS011;41940;52.880;13.012;2022-10-16T07:07:53;25.17;;;12.35;;
56063;SDS011;41940;52.880;13.012;2022-10-16T07:10:19;25.83;;;9.35;;
56063;SDS011;41940;52.880;13.012;2022-10-16T07:12:44;18.73;;;6.57;;
56063;SDS011;41940;52.880;13.012;2022-10-16T07:15:10;25.75;;;4.40;;
56063;SDS011;41940;52.880;13.012;2022-10-16T07:17:35;14.40;;;6.93;;
56063;SDS011;41940;52.880;13.012;2022-10-16T07:20:01;46.95;;;20.02;;
56063;SDS011;41940;52.880;13.012;2022-10-16T07:22:28;25.83;;;14.02;;
56063;SDS011;41940;52.880;13.012;2022-10-16T07:24:54;17.83;;;10.25;;
56063;SDS011;41940;52.880;13.012;2022-10-16T07:27:19;13.18;;;9.90;;
56063;SDS011;41940;52.880;13.012;2022-10-16T07:29:47;21.33;;;4.70;;
56063;SDS011;41940;52.880;13.012;2022-10-16T07:32:12;18.20;;;6.50;;
56063;SDS011;41940;52.880;13.012;2022-10-16T07:34:38;12.88;;;2.80;;
56063;SDS011;41940;52.880;13.012;2022-10-16T07:37:04;18.83;;;3.15;;
56063;SDS011;41940;52.880;13.012;2022-10-16T07:39:29;16.80;;;3.20;;
56063;SDS011;41940;52.880;13.012;2022-10-16T07:41:55;6.53;;;2.30;;
56063;SDS011;41940;52.880;13.012;2022-10-16T07:44:21;30.50;;;7.20;;
56063;SDS011;41940;52.880;13.012;2022-10-16T07:46:49;27.25;;;13.55;;
56063;SDS011;41940;52.880;13.012;2022-10-16T07:49:14;19.88;;;8.63;;
56063;SDS011;41940;52.880;13.012;2022-10-16T07:51:40;10.27;;;3.38;;
56063;SDS011;41940;52.880;13.012;2022-10-16T07:54:07;32.20;;;3.00;;
56063;SDS011;41940;52.880;13.012;2022-10-16T07:56:33;11.20;;;3.60;;
56063;SDS011;41940;52.880;13.012;2022-10-16T07:58:59;17.00;;;3.00;;
56063;SDS011;41940;52.880;13.012;2022-10-16T08:01:25;6.93;;;2.13;;
56063;SDS011;41940;52.880;13.012;2022-10-16T08:03:50;5.90;;;2.58;;
56063;SDS011;41940;52.880;13.012;2022-10-16T08:06:17;5.45;;;1.77;;
56063;SDS011;41940;52.880;13.012;2022-10-16T08:08:43;10.45;;;2.88;;
56063;SDS011;41940;52.880;13.012;2022-10-16T08:11:09;5.78;;;1.95;;
56063;SDS011;41940;52.880;13.012;2022-10-16T08:13:35;2.80;;;1.92;;
56063;SDS011;41940;52.880;13.012;2022-10-16T08:16:02;10.75;;;2.10;;
56063;SDS011;41940;52.880;13.012;2022-10-16T08:18:33;9.07;;;1.70;;
56063;SDS011;41940;52.880;13.012;2022-10-16T08:21:02;4.00;;;1.83;;
56063;SDS011;41940;52.880;13.012;2022-10-16T08:23:29;7.57;;;2.72;;
56063;SDS011;41940;52.880;13.012;2022-10-16T08:25:55;5.00;;;2.38;;
56063;SDS011;41940;52.880;13.012;2022-10-16T08:28:22;8.90;;;2.88;;
56063;SDS011;41940;52.880;13.012;2022-10-16T08:30:48;4.88;;;4.03;;
56063;SDS011;41940;52.880;13.012;2022-10-16T08:33:14;5.53;;;3.38;;
56063;SDS011;41940;52.880;13.012;2022-10-16T08:35:40;5.40;;;3.00;;
56063;SDS011;41940;52.880;13.012;2022-10-16T08:38:06;10.88;;;2.50;;
56063;SDS011;41940;52.880;13.012;2022-10-16T08:40:32;6.00;;;3.45;;
56063;SDS011;41940;52.880;13.012;2022-10-16T08:48:04;5.30;;;1.80;;
56063;SDS011;41940;52.880;13.012;2022-10-16T08:50:38;5.40;;;2.10;;
56063;SDS011;41940;52.880;13.012;2022-10-16T08:53:05;2.97;;;1.75;;
56063;SDS011;41940;52.880;13.012;2022-10-16T08:55:41;5.88;;;2.28;;
56063;SDS011;41940;52.880;13.012;2022-10-16T08:58:14;14.40;;;1.83;;
56063;SDS011;41940;52.880;13.012;2022-10-16T09:00:43;10.18;;;1.98;;
56063;SDS011;41940;52.880;13.012;2022-10-16T09:03:32;6.57;;;1.75;;
56063;SDS011;41940;52.880;13.012;2022-10-16T09:06:56;3.80;;;1.70;;
56063;SDS011;41940;52.880;13.012;2022-10-16T09:11:49;8.32;;;1.70;;
56063;SDS011;41940;52.880;13.012;2022-10-16T09:14:23;3.28;;;2.03;;
56063;SDS011;41940;52.880;13.012;2022-10-16T09:19:46;5.00;;;1.85;;
56063;SDS011;41940;52.880;13.012;2022-10-16T09:22:19;7.97;;;1.75;;
56063;SDS011;41940;52.880;13.012;2022-10-16T09:24:49;5.25;;;2.03;;
56063;SDS011;41940;52.880;13.012;2022-10-16T09:27:15;6.20;;;1.48;;
56063;SDS011;41940;52.880;13.012;2022-10-16T09:29:41;1.60;;;1.50;;
56063;SDS011;41940;52.880;13.012;2022-10-16T09:32:14;6.57;;;1.83;;
56063;SDS011;41940;52.880;13.012;2022-10-16T09:34:48;5.72;;;1.60;;
56063;SDS011;41940;52.880;13.012;2022-10-16T09:37:18;2.25;;;1.77;;
56063;SDS011;41940;52.880;13.012;2022-10-16T09:39:46;2.35;;;1.40;;
56063;SDS011;41940;52.880;13.012;2022-10-16T09:42:20;3.25;;;1.48;;
56063;SDS011;41940;52.880;13.012;2022-10-16T09:44:52;3.83;;;1.30;;
56063;SDS011;41940;52.880;13.012;2022-10-16T09:47:22;1.42;;;1.10;;
56063;SDS011;41940;52.880;13.012;2022-10-16T09:49:57;5.45;;;0.85;;
56063;SDS011;41940;52.880;13.012;2022-10-16T09:52:27;3.70;;;1.10;;
56063;SDS011;41940;52.880;13.012;2022-10-16T09:54:55;1.77;;;1.00;;
56063;SDS011;41940;52.880;13.012;2022-10-16T09:57:25;7.60;;;1.33;;
56063;SDS011;41940;52.880;13.012;2022-10-16T09:59:52;4.70;;;1.27;;
56063;SDS011;41940;52.880;13.012;2022-10-16T10:02:29;10.45;;;1.67;;
56063;SDS011;41940;52.880;13.012;2022-10-16T10:04:57;10.70;;;1.15;;
56063;SDS011;41940;52.880;13.012;2022-10-16T10:07:26;7.28;;;1.15;;
56063;SDS011;41940;52.880;13.012;2022-10-16T10:09:58;3.70;;;0.80;;
56063;SDS011;41940;52.880;13.012;2022-10-16T10:12:25;9.52;;;1.30;;
56063;SDS011;41940;52.880;13.012;2022-10-16T10:14:54;3.33;;;1.17;;
56063;SDS011;41940;52.880;13.012;2022-10-16T10:17:22;9.25;;;1.35;;
56063;SDS011;41940;52.880;13.012;2022-10-16T10:19:59;6.32;;;1.80;;
56063;SDS011;41940;52.880;13.012;2022-10-16T10:22:29;10.60;;;1.52;;
56063;SDS011;41940;52.880;13.012;2022-10-16T10:24:56;5.82;;;1.27;;
56063;SDS011;41940;52.880;13.012;2022-10-16T10:39:27;6.20;;;1.17;;
56063;SDS011;41940;52.880;13.012;2022-10-16T10:47:18;5.70;;;1.13;;
56063;SDS011;41940;52.880;13.012;2022-10-16T10:49:49;2.45;;;1.13;;
56063;SDS011;41940;52.880;13.012;2022-10-16T10:52:38;9.57;;;1.33;;
56063;SDS011;41940;52.880;13.012;2022-10-16T10:55:18;2.80;;;0.90;;
56063;SDS011;41940;52.880;13.012;2022-10-16T10:58:04;4.30;;;1.13;;
56063;SDS011;41940;52.880;13.012;2022-10-16T11:01:06;6.97;;;1.42;;
56063;SDS011;41940;52.880;13.012;2022-10-16T11:09:19;5.05;;;1.13;;
56063;SDS011;41940;52.880;13.012;2022-10-16T11:11:51;2.63;;;0.70;;
56063;SDS011;41940;52.880;13.012;2022-10-16T11:17:08;3.58;;;0.88;;
56063;SDS011;41940;52.880;13.012;2022-10-16T11:22:18;20.10;;;0.90;;
56063;SDS011;41940;52.880;13.012;2022-10-16T11:24:52;6.07;;;0.90;;
56063;SDS011;41940;52.880;13.012;2022-10-16T11:27:24;2.50;;;0.60;;
56063;SDS011;41940;52.880;13.012;2022-10-16T11:30:02;0.80;;;0.50;;
56063;SDS011;41940;52.880;13.012;2022-10-16T11:32:47;1.90;;;0.80;;
56063;SDS011;41940;52.880;13.012;2022-10-16T11:35:44;3.70;;;0.90;;
56063;SDS011;41940;52.880;13.012;2022-10-16T11:43:54;13.73;;;1.35;;
56063;SDS011;41940;52.880;13.012;2022-10-16T11:46:40;10.52;;;1.15;;
56063;SDS011;41940;52.880;13.012;2022-10-16T11:49:15;10.50;;;1.50;;
56063;SDS011;41940;52.880;13.012;2022-10-16T11:51:56;6.00;;;1.17;;
56063;SDS011;41940;52.880;13.012;2022-10-16T11:54:38;1.60;;;0.95;;
56063;SDS011;41940;52.880;13.012;2022-10-16T11:57:17;0.90;;;0.70;;
56063;SDS011;41940;52.880;13.012;2022-10-16T11:59:58;3.85;;;0.50;;
56063;SDS011;41940;52.880;13.012;2022-10-16T12:05:18;3.28;;;0.40;;
56063;SDS011;41940;52.880;13.012;2022-10-16T12:07:52;1.63;;;0.32;;
56063;SDS011;41940;52.880;13.012;2022-10-16T12:10:30;1.13;;;0.55;;
56063;SDS011;41940;52.880;13.012;2022-10-16T12:13:03;0.55;;;0.28;;
56063;SDS011;41940;52.880;13.012;2022-10-16T12:15:48;1.13;;;0.32;;
56063;SDS011;41940;52.880;13.012;2022-10-16T12:18:23;7.47;;;0.68;;
56063;SDS011;41940;52.880;13.012;2022-10-16T12:20:59;1.55;;;0.60;;
56063;SDS011;41940;52.880;13.012;2022-10-16T12:23:30;2.20;;;0.30;;
56063;SDS011;41940;52.880;13.012;2022-10-16T12:25:58;5.15;;;0.55;;
56063;SDS011;41940;52.880;13.012;2022-10-16T12:28:29;5.68;;;0.50;;
56063;SDS011;41940;52.880;13.012;2022-10-16T12:33:40;2.08;;;0.30;;
56063;SDS011;41940;52.880;13.012;2022-10-16T12:36:30;6.45;;;0.40;;
56063;SDS011;41940;52.880;13.012;2022-10-16T12:38:58;3.17;;;0.60;;
56063;SDS011;41940;52.880;13.012;2022-10-16T12:43:53;0.52;;;0.47;;
56063;SDS011;41940;52.880;13.012;2022-10-16T12:46:21;3.90;;;0.75;;
56063;SDS011;41940;52.880;13.012;2022-10-16T12:51:42;9.45;;;0.82;;
56063;SDS011;41940;52.880;13.012;2022-10-16T12:54:15;2.05;;;0.40;;
56063;SDS011;41940;52.880;13.012;2022-10-16T12:56:49;5.43;;;0.57;;
56063;SDS011;41940;52.880;13.012;2022-10-16T12:59:30;6.85;;;0.50;;
56063;SDS011;41940;52.880;13.012;2022-10-16T13:08:05;2.17;;;0.28;;
56063;SDS011;41940;52.880;13.012;2022-10-16T13:10:56;6.68;;;0.82;;
56063;SDS011;41940;52.880;13.012;2022-10-16T13:25:23;7.88;;;0.68;;
56063;SDS011;41940;52.880;13.012;2022-10-16T13:28:00;5.22;;;0.50;;
56063;SDS011;41940;52.880;13.012;2022-10-16T13:30:31;9.32;;;2.45;;
56063;SDS011;41940;52.880;13.012;2022-10-16T13:33:04;5.20;;;0.70;;
56063;SDS011;41940;52.880;13.012;2022-10-16T13:35:46;2.60;;;0.60;;
56063;SDS011;41940;52.880;13.012;2022-10-16T13:38:17;3.65;;;0.32;;
56063;SDS011;41940;52.880;13.012;2022-10-16T13:40:48;1.83;;;0.73;;
56063;SDS011;41940;52.880;13.012;2022-10-16T13:43:39;2.47;;;0.60;;
56063;SDS011;41940;52.880;13.012;2022-10-16T13:46:14;8.35;;;0.50;;
56063;SDS011;41940;52.880;13.012;2022-10-16T13:48:42;2.45;;;0.60;;
56063;SDS011;41940;52.880;13.012;2022-10-16T13:51:12;3.33;;;0.28;;
56063;SDS011;41940;52.880;13.012;2022-10-16T13:53:40;1.25;;;0.35;;
56063;SDS011;41940;52.880;13.012;2022-10-16T13:56:09;1.05;;;0.43;;
56063;SDS011;41940;52.880;13.012;2022-10-16T13:58:36;1.15;;;0.35;;
56063;SDS011;41940;52.880;13.012;2022-10-16T14:01:16;2.38;;;0.63;;
56063;SDS011;41940;52.880;13.012;2022-10-16T14:03:45;1.08;;;0.40;;
56063;SDS011;41940;52.880;13.012;2022-10-16T14:06:19;4.10;;;0.35;;
56063;SDS011;41940;52.880;13.012;2022-10-16T14:08:50;2.42;;;0.50;;
56063;SDS011;41940;52.880;13.012;2022-10-16T14:11:29;9.80;;;1.23;;
56063;SDS011;41940;52.880;13.012;2022-10-16T14:13:55;2.05;;;0.70;;
56063;SDS011;41940;52.880;13.012;2022-10-16T14:16:28;8.73;;;0.65;;
56063;SDS011;41940;52.880;13.012;2022-10-16T14:21:31;7.20;;;1.50;;
56063;SDS011;41940;52.880;13.012;2022-10-16T14:23:58;5.15;;;0.85;;
56063;SDS011;41940;52.880;13.012;2022-10-16T14:26:25;3.03;;;1.10;;
56063;SDS011;41940;52.880;13.012;2022-10-16T14:31:59;3.53;;;1.00;;
56063;SDS011;41940;52.880;13.012;2022-10-16T14:34:52;8.30;;;1.10;;
56063;SDS011;41940;52.880;13.012;2022-10-16T14:39:51;4.03;;;1.08;;
56063;SDS011;41940;52.880;13.012;2022-10-16T14:42:18;6.80;;;1.25;;
56063;SDS011;41940;52.880;13.012;2022-10-16T14:44:48;1.30;;;0.70;;
56063;SDS011;41940;52.880;13.012;2022-10-16T14:47:18;10.95;;;0.90;;
56063;SDS011;41940;52.880;13.012;2022-10-16T14:49:51;5.60;;;0.77;;
56063;SDS011;41940;52.880;13.012;2022-10-16T14:52:20;4.53;;;0.50;;
56063;SDS011;41940;52.880;13.012;2022-10-16T14:54:49;8.48;;;0.60;;
56063;SDS011;41940;52.880;13.012;2022-10-16T14:57:17;11.63;;;1.67;;
56063;SDS011;41940;52.880;13.012;2022-10-16T14:59:44;7.18;;;0.88;;
56063;SDS011;41940;52.880;13.012;2022-10-16T15:02:22;1.63;;;0.50;;
56063;SDS011;41940;52.880;13.012;2022-10-16T15:04:52;3.08;;;0.60;;
56063;SDS011;41940;52.880;13.012;2022-10-16T15:07:18;1.10;;;0.57;;
56063;SDS011;41940;52.880;13.012;2022-10-16T15:09:43;3.72;;;0.30;;
56063;SDS011;41940;52.880;13.012;2022-10-16T15:12:09;9.05;;;0.75;;
56063;SDS011;41940;52.880;13.012;2022-10-16T15:14:34;2.50;;;0.68;;
56063;SDS011;41940;52.880;13.012;2022-10-16T15:17:00;2.08;;;0.68;;
56063;SDS011;41940;52.880;13.012;2022-10-16T15:19:26;1.27;;;0.50;;
56063;SDS011;41940;52.880;13.012;2022-10-16T15:21:51;4.70;;;0.73;;
56063;SDS011;41940;52.880;13.012;2022-10-16T15:24:17;3.95;;;0.60;;
56063;SDS011;41940;52.880;13.012;2022-10-16T15:26:43;5.38;;;0.73;;
56063;SDS011;41940;52.880;13.012;2022-10-16T15:29:11;11.20;;;0.98;;
56063;SDS011;41940;52.880;13.012;2022-10-16T15:31:37;12.75;;;1.20;;
56063;SDS011;41940;52.880;13.012;2022-10-16T15:34:02;5.45;;;0.65;;
56063;SDS011;41940;52.880;13.012;2022-10-16T15:36:31;1.08;;;0.50;;
56063;SDS011;41940;52.880;13.012;2022-10-16T15:38:59;3.95;;;0.70;;
56063;SDS011;41940;52.880;13.012;2022-10-16T15:41:25;5.80;;;0.80;;
56063;SDS011;41940;52.880;13.012;2022-10-16T15:43:51;10.18;;;0.65;;
56063;SDS011;41940;52.880;13.012;2022-10-16T15:46:18;3.17;;;0.60;;
56063;SDS011;41940;52.880;13.012;2022-10-16T15:48:45;13.27;;;1.13;;
56063;SDS011;41940;52.880;13.012;2022-10-16T15:51:11;13.75;;;1.58;;
56063;SDS011;41940;52.880;13.012;2022-10-16T15:53:37;9.20;;;0.50;;
56063;SDS011;41940;52.880;13.012;2022-10-16T15:56:03;9.25;;;1.42;;
56063;SDS011;41940;52.880;13.012;2022-10-16T15:58:32;9.18;;;1.15;;
56063;SDS011;41940;52.880;13.012;2022-10-16T16:00:58;3.13;;;0.63;;
56063;SDS011;41940;52.880;13.012;2022-10-16T16:03:29;9.27;;;1.10;;
56063;SDS011;41940;52.880;13.012;2022-10-16T16:05:55;8.27;;;2.08;;
56063;SDS011;41940;52.880;13.012;2022-10-16T16:08:21;7.18;;;1.30;;
56063;SDS011;41940;52.880;13.012;2022-10-16T16:10:57;2.83;;;0.90;;
56063;SDS011;41940;52.880;13.012;2022-10-16T16:13:23;1.02;;;0.40;;
56063;SDS011;41940;52.880;13.012;2022-10-16T16:15:49;5.75;;;0.60;;
56063;SDS011;41940;52.880;13.012;2022-10-16T16:18:14;5.63;;;0.50;;
56063;SDS011;41940;52.880;13.012;2022-10-16T16:20:40;1.65;;;0.43;;
56063;SDS011;41940;52.880;13.012;2022-10-16T16:23:05;6.38;;;0.73;;